Providence, RI

7:25 AM EDT on October 24, 2017 (GMT -0400)
Green State | | Change Station
Active Advisory: Wind Advisory

Elev 52 ft 41.72 °N, 71.43 °W | Updated 8 minutes ago

Overcast
Overcast
66 °F
Feels Like 66 °F
N
9
Wind Variable Wind from South

Today
High -- | Low -- °F
--% Chance of Precip.
Yesterday
High -- | Low -- °F
Precip. -- in
Pressure 30.03 in
Visibility 5.0 miles
Clouds Mostly Cloudy 1100 ft
Mostly Cloudy 2700 ft
Mostly Cloudy 4800 ft
Dew Point 66 °F
Humidity 100%
Rainfall 0.35 in
Snow Depth Not available.
7:08 AM 5:50 PM
Waxing Crescent, 20% visible
SPECI KPVD 241117Z COR 17008KT 5SM BR BKN011 BKN027 BKN048 19/19 A3003 RMK AO2 RAE15 P0001 T01890189
Pressure 30.03 in
Visibility 5.0 miles
Clouds Mostly Cloudy 1100 ft
Mostly Cloudy 2700 ft
Mostly Cloudy 4800 ft
Dew Point 66 °F
Humidity 100%
Rainfall 0.35 in
Snow Depth Not available.
7:08 AM 5:50 PM
Waxing Crescent, 20% visible
SPECI KPVD 241117Z COR 17008KT 5SM BR BKN011 BKN027 BKN048 19/19 A3003 RMK AO2 RAE15 P0001 T01890189

Get Your Daily Forecast Email!

Thanks for signing up!

Be on the lookout for a verification email in your inbox.

You'll start receiving severe weather alerts in your inbox..

×

10-Day Weather Forecast

Almanac

Astronomy

Oct. 24, 2017 Rise Set
Actual Time
Civil Twilight
Nautical Twilight
Astronomical Twilight
Moon
Length of Visible Light
Length of Day
Tomorrow will be .
, % of the Moon is Illuminated

Today's Extremes

State Highs State Lows

Community

WunderPhotos

Category 6

Welcome to Category 6. This is the collective home for Weather Underground's featured writeups by Dr. Jeff Masters (right), Bob Henson (left), Chris Burt, and other regular contributors.

Nearby

Air Quality

  Air Quality AQ Index Pollutant
Not available.

Snow Depth

Station Depth Elevation

Earthquake Activity

City Distance Mag. Time & Date
Minimum magnitude displayed is 2.5.

Coastal Water Temperatures

Place Temperature

Stations

Nearby Weather Stations

Station Location Temp. Windchill Dew Point Humidity Wind Precip. Elev Updated Type
                   

Watches & Warnings

Wind Advisory
Issued: 3:43 AM EDT Oct. 24, 2017 – National Weather Service

... Wind Advisory from noon today to 11 am EDT Wednesday...

* locations... include all of southern New England.

* Winds... south 10 to 20 mph with gusts up to 55 mph.

* Timing... from this afternoon into Wednesday.

* Impacts... strong southerly winds will lead to downed trees and
limbs. Scattered power outages are possible.

Precautionary/preparedness actions...

A Wind Advisory means that sustained winds of 31 to 39 mph are
expected, with gusts between 46 to 57 mph. Winds this strong are
capable of Downing small tree limbs and branches, possibly
causing isolated power outages. Driving can also be difficult,
especially for high profile vehicles. Use extra caution.



For the latest updates... please visit our webpage at
www.Weather.Gov/Boston

You can follow US on facebook at
www.Facebook.Com/nwsboston